Terminal Aerodrome Forecast
Issued by NWS Tampa Bay Area, FL

Home | Current Version | Previous Version | Text Only | Print | Product List | Glossary On
Versions: 1 2 3 4 5 6 7 8 9 10 11 12 13 14 15 16 17 18 19 20 21 22 23 24 25 26 27 28 29 30 31 32 33 34 35
000
FTUS42 KTBW 301136
TAFTPA
TAF
KTPA 301136Z 3012/3112 26004KT P6SM VCSH SCT030 SCT250
     FM301400 22005KT P6SM VCTS BKN030CB BKN090 BKN250
     FM301800 25011KT P6SM VCTS SCT030CB BKN250
     FM310300 24005KT P6SM FEW025 SCT250
     FM310900 22006KT P6SM VCTS SCT030CB SCT250=

USA.gov is the U.S. government's official web portal to all federal, state and local government web resources and services.